Time;durP1;ratioP1;P1;durP2;ratioP2;P2;SDS_P1;SDS_P2;PMS_P1;PMS_P2;Temp;Humidity;BMP_temperature;BMP_pressure;BME280_temperature;BME280_humidity;BME280_pressure;Samples;Min_cycle;Max_cycle;Signal;HPM_P1;HPM_P2
2023/09/02 00:00:49;;;;;;;42.72;3.35;;;14.30;99.90;;;13.96;100.00;97847.88;4952329;28;20058;-76
2023/09/02 00:03:17;;;;;;;44.55;4.25;;;14.30;99.90;;;13.82;100.00;97845.13;4969693;28;20401;-76
2023/09/02 00:05:45;;;;;;;23.58;3.58;;;14.20;99.90;;;13.82;100.00;97837.28;4974226;28;20476;-78
2023/09/02 00:08:12;;;;;;;10.48;2.05;;;14.20;99.90;;;13.90;100.00;97837.75;4970172;28;20047;-77
2023/09/02 00:10:41;;;;;;;17.60;2.05;;;14.20;99.90;;;13.96;100.00;97827.00;4973864;28;20168;-79
2023/09/02 00:13:08;;;;;;;12.93;2.05;;;14.30;99.90;;;13.89;100.00;97830.88;4985859;28;20476;-78
2023/09/02 00:15:35;;;;;;;16.35;2.10;;;14.30;99.90;;;14.04;100.00;97826.59;4970188;28;20061;-78
2023/09/02 00:18:02;;;;;;;12.77;2.22;;;14.40;99.90;;;14.03;100.00;97827.53;4968066;28;20485;-79
2023/09/02 00:20:29;;;;;;;12.90;2.35;;;14.50;99.90;;;14.17;100.00;97834.63;4971609;28;20046;-77
2023/09/02 00:22:56;;;;;;;11.00;1.67;;;14.60;99.90;;;14.06;100.00;97827.34;4973246;28;20105;-79
2023/09/02 00:25:24;;;;;;;4.13;1.65;;;14.60;99.90;;;14.25;100.00;97826.38;4985752;28;20051;-79
2023/09/02 00:27:52;;;;;;;3.60;1.50;;;14.60;99.90;;;14.37;100.00;97823.13;4969114;28;20046;-80
2023/09/02 00:30:20;;;;;;;10.55;1.25;;;14.70;99.90;;;14.46;100.00;97824.38;4966398;28;20059;-81
2023/09/02 00:32:47;;;;;;;5.75;1.48;;;14.80;99.90;;;14.37;100.00;97820.53;4983020;28;20062;-80
2023/09/02 00:35:14;;;;;;;3.53;1.73;;;14.90;99.90;;;14.23;100.00;97823.84;4966880;28;20047;-79
2023/09/02 00:37:41;;;;;;;9.90;2.05;;;14.90;99.90;;;14.29;100.00;97823.53;4980824;28;20057;-78
2023/09/02 00:40:15;;;;;;;10.43;2.58;;;14.80;99.90;;;14.37;100.00;97828.34;4983176;28;20070;-81
2023/09/02 00:42:44;;;;;;;4.40;1.80;;;14.70;99.90;;;14.27;100.00;97821.94;4970526;28;20043;-77
2023/09/02 00:45:12;;;;;;;8.10;2.10;;;14.60;99.90;;;14.25;100.00;97821.16;4971220;28;20062;-77
2023/09/02 00:47:39;;;;;;;3.25;1.67;;;14.60;99.90;;;14.17;100.00;97824.19;4968604;28;20054;-78
2023/09/02 00:50:06;;;;;;;9.05;2.03;;;14.60;99.90;;;14.18;100.00;97825.88;4970167;28;20050;-78
2023/09/02 00:52:34;;;;;;;5.65;2.13;;;14.60;99.90;;;14.19;100.00;97827.56;4961550;28;20082;-78
2023/09/02 00:55:03;;;;;;;3.75;2.10;;;14.60;99.90;;;14.31;100.00;97828.69;4972122;28;20059;-77
2023/09/02 00:57:30;;;;;;;5.43;1.83;;;14.70;99.90;;;14.32;100.00;97817.28;4973493;28;20047;-77
2023/09/02 00:59:58;;;;;;;4.40;1.50;;;14.70;99.90;;;14.19;100.00;97819.72;4967585;28;20051;-77
2023/09/02 01:02:26;;;;;;;5.13;2.10;;;14.80;99.90;;;14.37;100.00;97815.28;4954161;28;20386;-76
2023/09/02 01:04:53;;;;;;;5.85;2.38;;;14.70;99.90;;;14.18;100.00;97818.03;4984858;28;20151;-77
2023/09/02 01:07:21;;;;;;;2.90;1.90;;;14.60;99.90;;;14.08;100.00;97812.47;4981613;28;20587;-77
2023/09/02 01:09:49;;;;;;;4.03;1.95;;;14.60;99.90;;;14.22;100.00;97812.56;4966418;28;20046;-77
2023/09/02 01:12:16;;;;;;;2.83;1.45;;;14.70;99.90;;;14.35;100.00;97814.53;4967027;28;20058;-74
2023/09/02 01:14:44;;;;;;;4.30;1.70;;;14.70;99.90;;;14.28;100.00;97819.25;4968439;28;20401;-78
2023/09/02 01:17:14;;;;;;;4.22;1.27;;;14.80;99.90;;;14.25;100.00;97821.16;4963909;28;20047;-74
2023/09/02 01:19:43;;;;;;;5.93;1.30;;;14.80;99.90;;;14.25;100.00;97821.16;4966938;28;20043;-77
2023/09/02 01:22:53;;;;;;;4.70;1.45;;;14.80;99.90;;;14.49;100.00;97821.63;4982312;28;20507;-77
2023/09/02 01:25:51;;;;;;;3.13;1.30;;;14.80;99.90;;;14.55;100.00;97821.28;4982531;28;20074;-77
2023/09/02 01:28:26;;;;;;;2.55;1.08;;;15.00;99.90;;;14.49;100.00;97819.00;4966040;28;20074;-76
2023/09/02 01:30:55;;;;;;;2.63;1.23;;;15.00;99.90;;;14.58;100.00;97827.22;4948199;28;20632;-76
2023/09/02 01:33:25;;;;;;;4.07;1.60;;;15.00;99.90;;;14.47;100.00;97824.31;4963762;28;20070;-76
2023/09/02 01:35:54;;;;;;;6.20;1.40;;;14.90;99.90;;;14.49;100.00;97822.44;4983483;28;20070;-76
2023/09/02 01:38:26;;;;;;;2.60;1.33;;;14.90;99.90;;;14.55;100.00;97824.78;4964945;28;20065;-76
2023/09/02 01:40:54;;;;;;;2.35;1.63;;;14.90;99.90;;;14.57;100.00;97822.91;4964354;28;20051;-76
2023/09/02 01:43:23;;;;;;;3.38;1.10;;;15.00;99.90;;;14.64;100.00;97824.25;4981476;28;20483;-76
2023/09/02 01:45:51;;;;;;;3.38;1.02;;;15.00;99.90;;;14.56;100.00;97818.59;4980378;28;20509;-76
2023/09/02 01:48:19;;;;;;;7.18;1.30;;;15.00;99.90;;;14.44;100.00;97821.88;4966454;28;20058;-76
2023/09/02 01:50:48;;;;;;;1.67;1.00;;;15.00;99.90;;;14.42;100.00;97831.56;4965295;28;20527;-75
2023/09/02 01:53:15;;;;;;;4.97;1.42;;;15.00;99.90;;;14.50;100.00;97831.97;4965581;28;20051;-76
2023/09/02 01:55:45;;;;;;;4.60;1.08;;;15.00;99.90;;;14.33;100.00;97838.09;4962755;28;20043;-76
2023/09/02 01:58:17;;;;;;;4.60;1.15;;;15.00;99.90;;;14.34;100.00;97833.72;4965619;28;20133;-76
2023/09/02 02:00:44;;;;;;;3.30;1.10;;;14.90;99.90;;;14.39;100.00;97835.19;4981603;28;20047;-76
2023/09/02 02:03:22;;;;;;;4.90;1.20;;;14.90;99.90;;;14.46;100.00;97840.91;4951163;28;20051;-74
2023/09/02 02:05:53;;;;;;;3.28;0.90;;;14.90;99.90;;;14.40;100.00;97836.00;4965418;28;20050;-76
2023/09/02 02:08:31;;;;;;;4.05;1.30;;;15.00;99.90;;;14.33;100.00;97839.88;4950169;28;20050;-76
2023/09/02 02:11:17;;;;;;;3.30;1.17;;;14.90;99.90;;;14.44;100.00;97838.38;4964952;28;20061;-76
2023/09/02 02:13:49;;;;;;;2.90;1.20;;;14.90;99.90;;;14.44;100.00;97837.53;4949513;28;20053;-76
2023/09/02 02:16:16;;;;;;;4.55;1.15;;;15.00;99.90;;;14.41;100.00;97842.91;4963083;28;20079;-76
2023/09/02 02:18:43;;;;;;;2.88;1.10;;;14.90;99.90;;;14.35;100.00;97843.25;4958530;28;20051;-76
2023/09/02 02:21:11;;;;;;;1.95;0.90;;;15.00;99.90;;;14.25;100.00;97842.88;4963522;28;20073;-73
2023/09/02 02:23:38;;;;;;;3.63;1.00;;;15.00;99.90;;;14.18;100.00;97838.91;4965904;28;20042;-75
2023/09/02 02:26:07;;;;;;;3.78;1.27;;;14.90;99.90;;;14.36;100.00;97840.53;4965001;28;20051;-76
2023/09/02 02:28:36;;;;;;;3.75;1.10;;;14.90;99.90;;;14.50;100.00;97837.19;4962362;28;20054;-75
2023/09/02 02:31:04;;;;;;;1.98;0.88;;;14.90;99.90;;;14.65;100.00;97840.78;4977351;28;20141;-76
2023/09/02 02:33:31;;;;;;;4.75;1.00;;;15.00;99.90;;;14.67;100.00;97848.53;4963123;28;20591;-76
2023/09/02 02:35:59;;;;;;;2.90;1.35;;;15.00;99.90;;;14.48;100.00;97838.19;4967386;28;20125;-75
2023/09/02 02:38:25;;;;;;;3.58;1.20;;;14.90;99.90;;;14.57;100.00;97846.44;4966591;28;20548;-75
2023/09/02 02:40:53;;;;;;;1.80;0.98;;;14.90;99.90;;;14.52;100.00;97842.34;4965855;28;20578;-75
2023/09/02 02:43:25;;;;;;;10.63;1.40;;;14.80;99.90;;;14.46;100.00;97850.50;4966258;28;20610;-75
2023/09/02 02:45:55;;;;;;;4.53;1.50;;;14.80;99.90;;;14.27;100.00;97848.03;4964671;28;20050;-74
2023/09/02 02:48:29;;;;;;;3.75;1.17;;;14.90;99.90;;;14.43;100.00;97849.72;4962141;28;20556;-76
2023/09/02 02:50:57;;;;;;;3.15;1.20;;;14.80;99.90;;;14.46;100.00;97851.34;4979816;28;20050;-75
2023/09/02 02:53:24;;;;;;;4.95;1.35;;;14.90;99.90;;;14.41;100.00;97848.13;4949630;28;20043;-75
2023/09/02 02:55:51;;;;;;;3.13;1.10;;;14.90;99.90;;;14.33;100.00;97845.09;4965790;28;20497;-76
2023/09/02 02:58:19;;;;;;;2.70;1.02;;;14.90;99.90;;;14.46;100.00;97845.28;4965616;28;20073;-75
2023/09/02 03:00:46;;;;;;;2.90;1.00;;;14.80;99.90;;;14.41;100.00;97851.59;4964278;28;20054;-75
2023/09/02 03:03:14;;;;;;;1.60;1.00;;;14.80;99.90;;;14.35;100.00;97858.94;4980917;28;20058;-74
2023/09/02 03:05:42;;;;;;;2.53;0.98;;;14.80;99.90;;;14.31;100.00;97855.63;4966317;28;20050;-74
2023/09/02 03:08:10;;;;;;;1.23;0.80;;;14.80;99.90;;;14.36;100.00;97853.59;4964827;28;20097;-75
2023/09/02 03:10:37;;;;;;;2.65;0.90;;;14.90;99.90;;;14.47;100.00;97860.88;4979055;28;20058;-75
2023/09/02 03:13:05;;;;;;;1.92;0.88;;;14.90;99.90;;;14.39;100.00;97866.50;4962438;28;20055;-73
2023/09/02 03:15:33;;;;;;;3.45;1.15;;;15.00;99.90;;;14.40;100.00;97859.50;4950026;28;20062;-74
2023/09/02 03:18:00;;;;;;;1.88;1.20;;;15.00;99.90;;;14.36;100.00;97858.81;4947832;28;20129;-75
2023/09/02 03:20:27;;;;;;;3.10;1.10;;;15.00;99.90;;;14.33;100.00;97866.84;4960116;28;20074;-75
2023/09/02 03:22:55;;;;;;;3.45;1.00;;;14.90;99.90;;;14.50;100.00;97855.47;4963480;28;20089;-75
2023/09/02 03:25:24;;;;;;;2.10;1.00;;;14.90;99.90;;;14.67;100.00;97866.84;4963421;28;20046;-75
2023/09/02 03:27:51;;;;;;;2.38;1.10;;;15.00;99.90;;;14.66;100.00;97865.97;4979563;28;20436;-75
2023/09/02 03:30:19;;;;;;;3.53;0.80;;;15.10;99.90;;;14.76;100.00;97861.09;4965138;28;20043;-76
2023/09/02 03:32:46;;;;;;;2.97;1.10;;;15.10;99.90;;;14.81;100.00;97872.13;4980123;28;20053;-75
2023/09/02 03:35:13;;;;;;;6.03;1.25;;;15.20;99.90;;;14.82;100.00;97863.34;4963939;28;20051;-76
2023/09/02 03:37:43;;;;;;;5.47;1.15;;;15.10;99.90;;;14.80;100.00;97863.47;4949710;28;20485;-75
2023/09/02 03:40:11;;;;;;;5.15;1.10;;;15.10;99.90;;;14.66;100.00;97862.50;4964559;28;20047;-76
2023/09/02 03:42:38;;;;;;;3.45;1.17;;;15.10;99.90;;;14.73;100.00;97864.69;4962011;28;20129;-76
2023/09/02 03:45:07;;;;;;;3.17;1.02;;;15.10;99.90;;;14.76;100.00;97866.31;4982821;28;20054;-75
2023/09/02 03:47:34;;;;;;;1.90;1.08;;;15.00;99.90;;;14.76;100.00;97863.72;4969973;28;20077;-76
2023/09/02 03:50:04;;;;;;;5.80;1.10;;;15.00;99.90;;;14.73;100.00;97864.69;4966996;28;20455;-75
2023/09/02 03:52:31;;;;;;;3.58;1.38;;;15.00;99.90;;;14.70;100.00;97857.03;4965339;28;20122;-75
2023/09/02 03:54:59;;;;;;;8.45;1.23;;;15.00;99.90;;;14.84;100.00;97867.56;4967055;28;20681;-76
2023/09/02 03:57:26;;;;;;;1.92;0.95;;;15.00;99.90;;;14.89;100.00;97866.47;4966079;28;20069;-75
2023/09/02 03:59:53;;;;;;;1.90;0.80;;;15.00;99.90;;;14.91;100.00;97872.47;4967806;28;20696;-75
2023/09/02 04:02:21;;;;;;;2.70;0.70;;;15.10;99.90;;;15.07;100.00;97873.28;4966123;28;20050;-75
2023/09/02 04:04:49;;;;;;;3.22;1.10;;;15.20;99.90;;;15.14;100.00;97868.56;4969092;28;20055;-76
2023/09/02 04:07:16;;;;;;;1.80;0.82;;;15.30;99.90;;;15.06;100.00;97867.22;4966731;28;20066;-75
2023/09/02 04:09:48;;;;;;;3.08;1.10;;;15.40;99.90;;;15.05;100.00;97862.94;4966615;28;20109;-76
2023/09/02 04:12:15;;;;;;;2.05;1.05;;;15.40;99.90;;;14.93;100.00;97863.59;4967581;28;20050;-76
2023/09/02 04:14:42;;;;;;;4.35;1.10;;;15.40;99.90;;;15.20;100.00;97857.75;4968876;28;20047;-76
2023/09/02 04:17:12;;;;;;;2.70;0.95;;;15.40;99.90;;;15.17;100.00;97860.56;4982413;28;20051;-76
2023/09/02 04:19:39;;;;;;;4.80;1.10;;;15.40;99.90;;;15.14;100.00;97864.16;4967367;28;20050;-76
2023/09/02 04:22:07;;;;;;;3.50;0.77;;;15.50;99.90;;;15.16;100.00;97864.91;4964438;28;20484;-75
2023/09/02 04:24:34;;;;;;;5.88;1.08;;;15.50;99.90;;;15.07;100.00;97857.59;4965678;28;20047;-75
2023/09/02 04:27:01;;;;;;;2.88;0.93;;;15.50;99.90;;;15.13;100.00;97861.66;4984384;28;20150;-75
2023/09/02 04:29:28;;;;;;;3.53;0.93;;;15.50;99.90;;;15.06;100.00;97856.75;4968429;28;20512;-76
2023/09/02 04:31:55;;;;;;;5.82;1.00;;;15.50;99.90;;;14.88;100.00;97865.63;4966298;28;20486;-75
2023/09/02 04:34:26;;;;;;;2.40;0.98;;;15.50;99.90;;;14.88;100.00;97870.03;4965676;28;20101;-76
2023/09/02 04:36:53;;;;;;;2.00;0.70;;;15.50;99.90;;;14.84;100.00;97866.72;4965793;28;20082;-76
2023/09/02 04:39:20;;;;;;;4.03;0.98;;;15.40;99.90;;;14.42;100.00;97866.34;4962054;28;20050;-76
2023/09/02 04:41:47;;;;;;;4.72;1.27;;;15.30;99.90;;;14.26;100.00;97867.25;4965949;28;20047;-76
2023/09/02 04:44:17;;;;;;;2.80;0.80;;;15.20;99.90;;;14.35;100.00;97859.75;4966701;28;20577;-76
2023/09/02 04:46:44;;;;;;;3.63;1.00;;;15.10;99.90;;;14.32;100.00;97869.50;4980108;28;20125;-76
2023/09/02 04:49:11;;;;;;;3.65;0.93;;;15.10;99.90;;;14.41;100.00;97863.78;4966562;28;20058;-75
2023/09/02 04:51:38;;;;;;;4.40;1.17;;;15.00;99.90;;;14.39;100.00;97863.03;4968182;28;20050;-76
2023/09/02 04:54:06;;;;;;;3.47;0.90;;;15.10;99.90;;;14.33;100.00;97861.59;4968027;28;20047;-75
2023/09/02 04:56:33;;;;;;;7.75;1.23;;;15.00;99.90;;;14.36;100.00;97869.28;4982092;28;20508;-75
2023/09/02 04:59:00;;;;;;;5.30;0.95;;;15.00;99.90;;;14.33;100.00;97866.00;4984626;28;20051;-76
2023/09/02 05:01:29;;;;;;;2.55;0.70;;;15.00;99.90;;;14.25;100.00;97876.00;4967516;28;20042;-74
2023/09/02 05:03:56;;;;;;;3.15;0.93;;;15.00;99.90;;;14.26;100.00;97877.69;4967015;28;20137;-76
2023/09/02 05:06:24;;;;;;;8.35;0.82;;;14.90;99.90;;;14.21;100.00;97877.94;4960661;28;20098;-76
2023/09/02 05:08:54;;;;;;;1.25;0.68;;;14.90;99.90;;;14.23;100.00;97870.84;4963447;28;20059;-76
2023/09/02 05:11:21;;;;;;;3.90;0.70;;;14.90;99.90;;;14.31;100.00;97873.06;4963212;28;20056;-76
2023/09/02 05:13:49;;;;;;;4.25;0.98;;;14.90;99.90;;;14.45;100.00;97873.16;4966307;28;20129;-76
2023/09/02 05:16:16;;;;;;;3.83;0.70;;;14.90;99.90;;;14.42;100.00;97873.34;4950243;28;20109;-74
2023/09/02 05:18:45;;;;;;;6.50;0.60;;;14.90;99.90;;;14.56;100.00;97876.06;4965983;28;20059;-76
2023/09/02 05:21:12;;;;;;;2.63;0.60;;;14.90;99.90;;;14.46;100.00;97872.25;4951337;28;20086;-76
2023/09/02 05:23:39;;;;;;;2.58;0.80;;;15.00;99.90;;;14.48;100.00;97885.22;4966687;28;20051;-76
2023/09/02 05:26:07;;;;;;;6.53;0.75;;;15.00;99.90;;;14.46;100.00;97879.22;4967127;28;20057;-76
2023/09/02 05:28:34;;;;;;;3.75;0.70;;;15.00;99.90;;;14.50;100.00;97893.81;4967990;28;20054;-76
2023/09/02 05:31:01;;;;;;;5.40;0.65;;;15.00;99.90;;;14.71;100.00;97894.44;4965053;28;20503;-76
2023/09/02 05:33:30;;;;;;;1.83;0.80;;;15.10;99.90;;;14.76;100.00;97895.06;4966112;28;20053;-74
2023/09/02 05:35:59;;;;;;;4.97;0.90;;;15.10;99.90;;;14.85;100.00;97895.41;4963524;28;20129;-77
2023/09/02 05:38:26;;;;;;;3.78;1.13;;;15.10;99.90;;;14.83;100.00;97899.88;4965008;28;20566;-76
2023/09/02 05:40:54;;;;;;;1.67;0.70;;;15.10;99.90;;;14.66;100.00;97906.94;4966364;28;20047;-76
2023/09/02 05:43:24;;;;;;;3.65;2.08;;;15.00;99.90;;;14.73;100.00;97910.88;4964219;28;20661;-76
2023/09/02 05:45:51;;;;;;;3.45;1.75;;;15.00;99.90;;;14.77;100.00;97912.41;4979285;28;20051;-76
2023/09/02 05:48:18;;;;;;;2.67;1.33;;;14.90;99.90;;;14.69;100.00;97914.59;4964265;28;20065;-76
2023/09/02 05:50:47;;;;;;;2.75;1.30;;;14.90;99.90;;;14.75;100.00;97916.88;4962075;28;20042;-76
2023/09/02 05:53:14;;;;;;;5.18;1.23;;;14.90;99.90;;;14.91;100.00;97916.91;4966311;28;20057;-76
2023/09/02 05:55:41;;;;;;;2.83;1.10;;;15.10;99.90;;;15.11;100.00;97926.25;4978777;28;20097;-76
2023/09/02 05:58:11;;;;;;;3.00;1.10;;;15.20;99.90;;;15.15;100.00;97926.00;4965271;28;20050;-75
2023/09/02 06:00:38;;;;;;;5.57;1.83;;;15.30;99.90;;;14.93;100.00;97923.72;4966180;28;20054;-74
2023/09/02 06:03:08;;;;;;;2.50;1.15;;;15.40;99.90;;;14.82;100.00;97916.50;4965025;28;20043;-76
2023/09/02 06:05:35;;;;;;;3.53;0.82;;;15.40;99.90;;;14.89;100.00;97918.75;4962943;28;20055;-76
2023/09/02 06:08:03;;;;;;;4.07;1.20;;;15.40;99.90;;;14.94;100.00;97914.09;4975964;28;20058;-75
2023/09/02 06:10:30;;;;;;;4.72;1.00;;;15.40;99.90;;;15.04;100.00;97915.28;4967049;28;20132;-74
2023/09/02 06:13:01;;;;;;;7.93;1.35;;;15.40;99.90;;;15.15;100.00;97918.16;4965260;28;20579;-76
2023/09/02 06:15:28;;;;;;;3.55;1.17;;;15.40;99.90;;;15.32;100.00;97926.81;4964765;28;20047;-75
2023/09/02 06:17:55;;;;;;;5.10;0.82;;;15.50;99.90;;;15.55;100.00;97920.28;4965112;28;20066;-76
2023/09/02 06:20:23;;;;;;;3.35;0.98;;;15.60;99.90;;;15.59;100.00;97929.66;4956011;28;20110;-75
2023/09/02 06:22:50;;;;;;;2.53;0.80;;;15.70;99.90;;;15.80;100.00;97922.38;4964309;28;20090;-76
2023/09/02 06:25:18;;;;;;;3.03;1.00;;;15.80;99.90;;;15.89;100.00;97927.91;4962948;28;20085;-76
2023/09/02 06:27:45;;;;;;;2.13;0.90;;;16.00;99.90;;;15.80;100.00;97930.22;4981996;28;20142;-76
2023/09/02 06:30:15;;;;;;;1.88;0.75;;;16.10;99.90;;;15.86;100.00;97932.47;4963498;28;20058;-76
2023/09/02 06:32:44;;;;;;;4.57;1.13;;;16.10;99.90;;;16.00;100.00;97932.50;4973733;28;20508;-76
2023/09/02 06:35:15;;;;;;;3.58;1.00;;;16.20;99.90;;;16.18;100.00;97933.19;4965566;28;20054;-75
2023/09/02 06:37:42;;;;;;;0.80;0.60;;;16.30;99.90;;;16.51;100.00;97934.72;4963592;28;20147;-76
2023/09/02 06:40:11;;;;;;;1.88;0.80;;;16.40;99.90;;;16.55;100.00;97938.84;4963548;28;20129;-75
2023/09/02 06:42:39;;;;;;;1.05;0.55;;;16.60;99.90;;;16.70;100.00;97937.91;4965452;28;20105;-75
2023/09/02 06:45:07;;;;;;;2.03;0.70;;;16.80;99.90;;;16.86;100.00;97944.84;4966276;28;20050;-75
2023/09/02 06:47:34;;;;;;;1.23;0.70;;;16.90;99.90;;;17.12;100.00;97941.41;4978798;28;20055;-77
2023/09/02 06:50:01;;;;;;;4.10;0.80;;;17.10;99.90;;;17.35;100.00;97946.97;4977158;28;20088;-75
2023/09/02 06:52:28;;;;;;;2.80;0.98;;;17.20;99.90;;;17.55;100.00;97941.28;4966280;28;20057;-73
2023/09/02 06:54:55;;;;;;;2.13;0.88;;;17.40;99.90;;;17.85;100.00;97942.03;4948497;28;20057;-75
2023/09/02 06:57:23;;;;;;;1.50;0.80;;;17.60;99.90;;;18.18;100.00;97931.06;4953699;28;20643;-76
2023/09/02 06:59:50;;;;;;;0.95;0.55;;;17.90;99.90;;;18.09;100.00;97939.56;4962313;28;20051;-76
2023/09/02 07:02:17;;;;;;;2.80;0.90;;;18.00;99.90;;;18.21;100.00;97935.25;4963210;28;20047;-75
2023/09/02 07:04:49;;;;;;;1.52;0.60;;;18.20;99.90;;;18.21;100.00;97941.34;4960008;28;20047;-76
2023/09/02 07:07:17;;;;;;;1.10;0.60;;;18.20;99.90;;;18.26;100.00;97943.66;4981787;28;20117;-76
2023/09/02 07:09:44;;;;;;;3.65;0.73;;;18.20;99.90;;;18.13;100.00;97939.25;4965892;28;20051;-76
2023/09/02 07:12:17;;;;;;;1.52;0.68;;;18.10;99.90;;;18.35;100.00;97943.03;4965715;28;20059;-75
2023/09/02 07:14:48;;;;;;;1.05;0.50;;;18.30;99.90;;;18.27;100.00;97938.31;4968708;28;20058;-77
2023/09/02 07:17:16;;;;;;;1.92;0.70;;;18.40;99.90;;;18.23;100.00;97944.72;4981898;28;20058;-76
2023/09/02 07:19:45;;;;;;;3.05;1.05;;;18.50;99.90;;;18.44;100.00;97950.28;4968437;28;20113;-76
2023/09/02 07:22:13;;;;;;;2.33;0.90;;;18.50;99.90;;;18.08;100.00;97954.47;4970557;28;20106;-77
2023/09/02 07:24:39;;;;;;;3.20;1.15;;;18.50;99.90;;;18.14;100.00;97958.47;4972251;28;20163;-76
2023/09/02 07:27:07;;;;;;;2.88;0.70;;;18.50;99.90;;;18.42;100.00;97961.84;4967950;28;20050;-76
2023/09/02 07:29:35;;;;;;;4.85;0.90;;;18.60;99.90;;;18.76;100.00;97955.94;4968061;28;20051;-76
2023/09/02 07:32:03;;;;;;;3.50;0.90;;;18.70;99.90;;;18.88;100.00;97948.19;4970078;28;20047;-76
2023/09/02 07:34:37;;;;;;;1.63;0.70;;;18.90;99.90;;;19.00;100.00;97948.16;4970134;28;20059;-76
2023/09/02 07:37:05;;;;;;;2.17;0.75;;;19.00;99.90;;;19.21;100.00;97947.56;4964473;28;20484;-76
2023/09/02 07:39:32;;;;;;;3.25;0.70;;;19.20;99.90;;;19.26;100.00;97952.50;4968890;28;20149;-76
2023/09/02 07:42:00;;;;;;;3.42;0.80;;;19.40;99.90;;;19.28;100.00;97951.44;4968752;28;20455;-76
2023/09/02 07:44:27;;;;;;;2.03;0.70;;;19.40;99.90;;;19.40;100.00;97947.91;4965648;28;20109;-76
2023/09/02 07:46:54;;;;;;;3.92;1.10;;;19.40;99.90;;;19.51;100.00;97946.31;4953679;28;20051;-76
2023/09/02 07:49:21;;;;;;;4.25;0.75;;;19.50;99.90;;;19.77;100.00;97949.66;4969875;28;20109;-76
2023/09/02 07:51:51;;;;;;;2.97;0.60;;;19.70;99.90;;;19.88;100.00;97952.34;4969459;28;20050;-76
2023/09/02 07:54:18;;;;;;;2.13;0.55;;;19.90;99.90;;;19.89;100.00;97948.78;4969574;28;20062;-75
2023/09/02 07:56:48;;;;;;;2.75;0.60;;;19.90;99.90;;;19.92;100.00;97945.91;4968492;28;20097;-77
2023/09/02 07:59:15;;;;;;;2.15;0.60;;;19.90;99.90;;;20.09;100.00;97949.88;4951859;28;20051;-76
2023/09/02 08:01:43;;;;;;;2.58;0.70;;;19.90;99.90;;;20.41;100.00;97943.97;4966974;28;20491;-76
2023/09/02 08:04:10;;;;;;;3.72;0.50;;;19.90;99.90;;;20.65;100.00;97951.81;4969540;28;20051;-76
2023/09/02 08:06:37;;;;;;;2.55;0.70;;;20.00;99.90;;;20.89;100.00;97954.31;4967508;28;20675;-76
2023/09/02 08:09:05;;;;;;;2.08;0.52;;;20.20;99.90;;;21.40;100.00;97953.81;4967716;28;20532;-76
2023/09/02 08:11:32;;;;;;;2.25;0.50;;;20.50;99.90;;;22.23;100.00;97962.00;4968295;28;20485;-76
2023/09/02 08:13:59;;;;;;;0.70;0.50;;;20.90;99.90;;;22.61;100.00;97952.66;4966325;28;20058;-76
2023/09/02 08:16:26;;;;;;;0.90;0.50;;;21.30;99.90;;;22.78;100.00;97952.00;4969657;28;20055;-76
2023/09/02 08:18:54;;;;;;;3.33;0.70;;;21.90;99.90;;;23.89;100.00;97944.91;4961477;28;20054;-75
2023/09/02 08:21:21;;;;;;;0.82;0.40;;;22.70;99.90;;;23.74;100.00;97945.34;4969946;28;20524;-75
2023/09/02 08:23:49;;;;;;;3.92;0.73;;;23.50;99.90;;;24.27;100.00;97949.31;4970256;28;20093;-76
2023/09/02 08:26:16;;;;;;;1.98;0.50;;;24.20;99.90;;;24.61;100.00;97957.66;4966421;28;20134;-76
2023/09/02 08:28:44;;;;;;;1.20;0.40;;;25.00;99.90;;;24.90;100.00;97958.50;4970521;28;20125;-77
2023/09/02 08:31:18;;;;;;;2.42;0.50;;;26.00;99.90;;;24.99;100.00;97968.25;4976837;28;20506;-74
2023/09/02 08:33:47;;;;;;;1.27;0.50;;;26.40;99.90;;;24.94;100.00;97973.19;4942419;28;20043;-77
2023/09/02 08:36:16;;;;;;;1.77;0.40;;;26.50;99.90;;;25.41;100.00;97973.94;4969244;28;20300;-76
2023/09/02 08:38:44;;;;;;;2.60;0.50;;;27.10;99.90;;;26.30;100.00;97980.28;4955507;28;20047;-73
2023/09/02 08:41:25;;;;;;;1.88;0.52;;;27.80;99.90;;;25.42;100.00;97986.22;4933144;28;20152;-76
2023/09/02 08:43:59;;;;;;;2.85;0.68;;;28.30;99.90;;;25.73;100.00;97987.72;4968611;28;20114;-76
2023/09/02 08:46:27;;;;;;;2.95;0.50;;;28.30;99.90;;;26.69;100.00;97996.72;4972191;28;20141;-76
2023/09/02 08:48:58;;;;;;;1.55;0.50;;;28.60;99.90;;;26.97;100.00;98001.84;4953531;28;20066;-76
2023/09/02 08:51:27;;;;;;;1.55;0.50;;;29.20;99.90;;;26.90;100.00;97996.31;4957135;28;20094;-76
2023/09/02 08:53:59;;;;;;;2.67;0.70;;;29.30;99.90;;;27.31;100.00;97998.38;4954837;28;20499;-73
2023/09/02 08:56:28;;;;;;;4.43;0.40;;;28.20;99.90;;;27.83;100.00;97994.69;4954798;28;20292;-77
2023/09/02 08:58:55;;;;;;;1.85;0.40;;;27.70;99.90;;;27.01;100.00;97999.72;4952177;28;20066;-76
2023/09/02 09:01:24;;;;;;;1.17;0.50;;;27.70;99.90;;;25.16;100.00;98003.84;4968907;28;20047;-72
2023/09/02 09:03:55;;;;;;;1.95;0.50;;;28.00;99.90;;;26.49;100.00;98004.03;4951048;28;20583;-76
2023/09/02 09:06:25;;;;;;;1.23;0.47;;;28.80;99.90;;;27.71;100.00;98004.81;4952295;28;20082;-76
2023/09/02 09:08:54;;;;;;;1.05;0.40;;;29.30;99.90;;;28.05;100.00;98010.06;4956536;28;20051;-73
2023/09/02 09:11:23;;;;;;;1.73;0.37;;;30.00;99.90;;;28.09;100.00;98005.22;4968629;28;20595;-75
2023/09/02 09:13:51;;;;;;;0.40;0.22;;;30.50;99.90;;;28.68;100.00;98005.06;4937206;28;20474;-77
2023/09/02 09:16:31;;;;;;;2.85;0.43;;;30.70;99.90;;;28.43;100.00;98006.91;4950060;28;20065;-76
2023/09/02 09:19:02;;;;;;;1.48;0.50;;;30.70;99.90;;;28.91;100.00;97989.13;4965503;28;20563;-74
2023/09/02 09:21:29;;;;;;;;;;;29.70;99.90;;;27.51;100.00;98014.94;4950500;28;20503;-76
2023/09/02 09:23:56;;;;;;;1.50;0.50;;;28.80;99.90;;;27.40;100.00;98013.41;4949891;28;20075;-76
2023/09/02 09:26:25;;;;;;;1.50;0.50;;;28.40;99.90;;;27.21;100.00;98014.50;4955046;28;20050;-77
2023/09/02 09:28:59;;;;;;;1.90;0.50;;;28.50;99.90;;;27.39;100.00;98026.88;4957935;28;20054;-73
2023/09/02 09:31:28;;;;;;;3.33;0.55;;;29.00;99.90;;;27.92;100.00;98018.56;4954686;28;20054;-76
2023/09/02 09:33:58;;;;;;;0.63;0.30;;;29.40;99.90;;;29.35;100.00;98020.75;4965477;28;20057;-72
2023/09/02 09:36:27;;;;;;;1.17;0.30;;;29.90;99.90;;;30.05;100.00;98019.88;4951061;28;20063;-77
2023/09/02 09:39:00;;;;;;;1.55;0.30;;;30.50;99.90;;;31.20;100.00;98008.97;4939934;28;20355;-77
2023/09/02 09:41:35;;;;;;;1.27;0.43;;;31.10;99.90;;;31.58;100.00;97999.94;4955363;28;20062;-76
2023/09/02 09:44:06;;;;;;;1.95;0.50;;;31.50;99.90;;;30.73;100.00;98001.25;4949947;28;20051;-73
2023/09/02 09:46:43;;;;;;;1.35;0.30;;;31.90;99.90;;;31.16;100.00;98002.28;4966002;28;20163;-76
2023/09/02 09:49:28;;;;;;;1.15;0.38;;;;;;;31.37;100.00;97998.00;4950153;28;20054;-76
2023/09/02 09:52:01;;;;;;;2.60;0.40;;;32.10;99.10;;;30.84;100.00;98007.00;4965169;28;20579;-74
2023/09/02 09:54:47;;;;;;;1.05;0.40;;;32.10;99.90;;;30.84;100.00;98009.69;4965103;28;20046;-75
2023/09/02 09:57:29;;;;;;;1.98;0.45;;;32.30;98.90;;;32.00;100.00;98001.03;4961067;28;20050;-76
2023/09/02 09:59:57;;;;;;;1.15;0.32;;;32.20;99.60;;;30.72;100.00;98008.44;4947005;28;20055;-74
2023/09/02 10:02:25;;;;;;;1.55;0.50;;;32.20;99.40;;;30.36;100.00;98016.34;4961115;28;20500;-76
2023/09/02 10:04:59;;;;;;;1.90;0.40;;;32.00;99.00;;;30.21;100.00;98021.59;4966764;28;20862;-76
2023/09/02 10:07:32;;;;;;;1.58;0.30;;;31.80;99.70;;;30.49;100.00;98007.66;4949342;28;20047;-76
2023/09/02 10:10:06;;;;;;;2.10;0.40;;;31.80;98.70;;;29.53;100.00;98005.28;4963088;28;20562;-76
2023/09/02 10:12:33;;;;;;;1.75;0.40;;;31.60;98.60;;;30.54;100.00;98002.59;4967129;28;20209;-74
2023/09/02 10:15:08;;;;;;;2.83;0.50;;;31.40;99.30;;;32.36;100.00;97998.25;4962994;28;20062;-74
2023/09/02 10:17:37;;;;;;;2.80;0.47;;;31.40;99.50;;;30.73;100.00;98009.28;4965662;28;20781;-75
2023/09/02 10:20:05;;;;;;;1.63;0.40;;;31.60;99.00;;;29.66;100.00;98022.63;4961534;28;20053;-75